createdAt,value
2022-08-02T00:00:16.337Z,0.20
2022-08-02T00:03:17.896Z,0.32
2022-08-02T00:06:19.458Z,0.20
2022-08-02T00:09:21.570Z,0.10
2022-08-02T00:12:26.176Z,0.10
2022-08-02T00:15:27.706Z,0.20
2022-08-02T00:18:29.585Z,0.30
2022-08-02T00:21:31.526Z,0.20
2022-08-02T00:24:33.705Z,0.20
2022-08-02T00:27:35.535Z,0.10
2022-08-02T00:30:37.463Z,0.40
2022-08-02T00:34:05.613Z,0.10
2022-08-02T00:40:02.591Z,0.20
2022-08-02T00:43:08.812Z,0.30
2022-08-02T00:46:10.641Z,0.10
2022-08-02T00:49:13.478Z,0.10
2022-08-02T00:52:18.320Z,0.10
2022-08-02T00:55:23.551Z,0.30
2022-08-02T00:58:32.711Z,0.10
2022-08-02T01:01:54.480Z,0.20
2022-08-02T01:04:59.230Z,0.17
2022-08-02T01:08:01.829Z,0.10
2022-08-02T01:11:03.950Z,0.10
2022-08-02T01:14:09.369Z,0.55
2022-08-02T01:17:16.030Z,0.10
2022-08-02T01:20:45.843Z,0.25
2022-08-02T01:24:01.382Z,0.20
2022-08-02T01:27:19.697Z,0.20
2022-08-02T01:30:24.806Z,0.20
2022-08-02T01:33:35.016Z,0.10
2022-08-02T01:36:43.886Z,0.20
2022-08-02T01:39:50.378Z,0.20
2022-08-02T01:42:54.668Z,0.20
2022-08-02T01:45:58.819Z,0.60
2022-08-02T01:49:09.490Z,0.20
2022-08-02T01:52:23.014Z,0.20
2022-08-02T01:55:57.041Z,0.10
2022-08-02T01:58:52.527Z,0.20
2022-08-02T02:01:56.974Z,0.35
2022-08-02T02:05:01.403Z,0.30
2022-08-02T02:08:05.092Z,0.20
2022-08-02T02:12:14.187Z,0.10
2022-08-02T02:14:30.272Z,0.32
2022-08-02T02:17:52.887Z,0.15
2022-08-02T02:20:55.496Z,0.13
2022-08-02T02:24:00.251Z,0.17
2022-08-02T02:27:03.441Z,0.20
2022-08-02T02:30:05.971Z,0.20
2022-08-02T02:33:10.752Z,0.20
2022-08-02T02:36:13.580Z,0.17
2022-08-02T02:39:17.679Z,0.20
2022-08-02T02:42:24.229Z,0.75
2022-08-02T02:45:26.163Z,0.25
2022-08-02T02:48:32.798Z,0.17
2022-08-02T02:51:34.890Z,0.20
2022-08-02T02:54:41.189Z,0.17
2022-08-02T02:57:43.752Z,0.40
2022-08-02T03:01:00.104Z,0.10
2022-08-02T03:04:04.841Z,0.15
2022-08-02T03:07:06.407Z,0.20
2022-08-02T03:10:09.187Z,0.20
2022-08-02T03:13:11.818Z,0.30
2022-08-02T03:16:14.047Z,0.10
2022-08-02T03:19:19.545Z,0.28
2022-08-02T03:22:20.975Z,0.30
2022-08-02T03:25:25.646Z,0.22
2022-08-02T03:28:30.515Z,0.10
2022-08-02T03:31:32.787Z,0.30
2022-08-02T03:34:35.183Z,0.20
2022-08-02T03:37:37.354Z,0.22
2022-08-02T03:40:39.304Z,0.25
2022-08-02T03:43:42.943Z,0.10
2022-08-02T03:46:44.774Z,0.10
2022-08-02T03:49:47.443Z,0.20
2022-08-02T03:52:49.583Z,0.28
2022-08-02T03:55:51.574Z,0.20
2022-08-02T03:59:05.695Z,0.10
2022-08-02T04:02:07.560Z,0.20
2022-08-02T04:05:09.708Z,0.20
2022-08-02T04:08:34.976Z,0.50
2022-08-02T04:14:36.447Z,0.50
2022-08-02T04:17:41.448Z,0.15
2022-08-02T04:20:45.410Z,0.30
2022-08-02T04:23:49.180Z,0.20
2022-08-02T04:26:52.513Z,0.20
2022-08-02T04:29:55.419Z,0.20
2022-08-02T04:32:57.709Z,0.40
2022-08-02T04:35:59.984Z,0.32
2022-08-02T04:39:01.607Z,0.47
2022-08-02T04:42:03.459Z,0.20
2022-08-02T04:45:06.680Z,0.25
2022-08-02T04:48:08.117Z,0.20
2022-08-02T04:51:10.309Z,0.22
2022-08-02T04:54:12.570Z,0.30
2022-08-02T04:57:28.917Z,0.28
2022-08-02T05:00:31.629Z,0.38
2022-08-02T05:03:33.176Z,0.10
2022-08-02T05:06:35.216Z,0.10
2022-08-02T05:09:36.696Z,0.35
2022-08-02T05:12:38.757Z,0.20
2022-08-02T05:15:40.234Z,0.30
2022-08-02T05:18:41.695Z,0.30
2022-08-02T05:21:44.625Z,0.17
2022-08-02T05:24:46.125Z,0.38
2022-08-02T05:27:47.573Z,0.20
2022-08-02T05:30:49.152Z,0.20
2022-08-02T05:33:51.182Z,0.30
2022-08-02T05:36:53.234Z,0.30
2022-08-02T05:39:56.435Z,0.20
2022-08-02T05:42:57.908Z,0.35
2022-08-02T05:45:59.920Z,0.20
2022-08-02T05:49:03.258Z,0.40
2022-08-02T05:52:14.413Z,0.20
2022-08-02T05:55:21.352Z,0.35
2022-08-02T05:58:35.340Z,0.30
2022-08-02T06:01:40.085Z,0.30
2022-08-02T06:04:53.555Z,0.20
2022-08-02T06:07:58.529Z,0.10
2022-08-02T06:11:02.162Z,0.52
2022-08-02T06:14:05.109Z,0.30
2022-08-02T06:17:08.067Z,0.20
2022-08-02T06:20:11.317Z,0.30
2022-08-02T06:23:14.058Z,0.30
2022-08-02T06:26:16.977Z,0.50
2022-08-02T06:29:19.692Z,1.20
2022-08-02T06:32:27.186Z,0.30
2022-08-02T06:35:34.929Z,1.55
2022-08-02T06:38:42.373Z,1.48
2022-08-02T06:41:53.106Z,1.20
2022-08-02T06:45:11.236Z,4.07
2022-08-02T06:48:13.166Z,3.63
2022-08-02T06:51:14.821Z,3.85
2022-08-02T06:54:21.027Z,1.40
2022-08-02T06:57:22.570Z,2.20
2022-08-02T07:00:24.386Z,2.35
2022-08-02T07:03:26.439Z,1.10
2022-08-02T07:06:28.877Z,1.83
2022-08-02T07:09:30.934Z,2.53
2022-08-02T07:12:33.995Z,1.48
2022-08-02T07:15:36.392Z,1.13
2022-08-02T07:18:38.041Z,1.48
2022-08-02T07:21:56.045Z,2.10
2022-08-02T07:25:00.322Z,3.58
2022-08-02T07:28:01.881Z,3.88
2022-08-02T07:31:03.651Z,1.45
2022-08-02T07:34:05.311Z,2.00
2022-08-02T07:37:08.447Z,0.80
2022-08-02T07:40:20.286Z,1.42
2022-08-02T07:43:22.434Z,0.93
2022-08-02T07:46:24.875Z,2.22
2022-08-02T07:49:26.421Z,1.08
2022-08-02T07:52:27.972Z,1.83
2022-08-02T07:55:39.309Z,1.73
2022-08-02T07:58:42.178Z,6.32
2022-08-02T08:01:46.034Z,5.57
2022-08-02T08:04:47.900Z,2.53
2022-08-02T08:07:49.438Z,3.80
2022-08-02T08:10:51.547Z,5.50
2022-08-02T08:13:53.118Z,2.83
2022-08-02T08:16:54.667Z,2.88
2022-08-02T08:19:57.146Z,2.95
2022-08-02T08:22:58.726Z,1.10
2022-08-02T08:26:01.167Z,0.77
2022-08-02T08:29:02.808Z,1.60
2022-08-02T08:32:05.268Z,1.23
2022-08-02T08:35:07.689Z,1.05
2022-08-02T08:38:09.379Z,2.10
2022-08-02T08:41:11.546Z,1.25
2022-08-02T08:44:13.067Z,0.47
2022-08-02T08:47:14.943Z,0.68
2022-08-02T08:50:24.523Z,1.65
2022-08-02T08:53:36.720Z,0.45
2022-08-02T08:56:43.227Z,0.60
2022-08-02T08:59:45.132Z,1.85
2022-08-02T09:02:47.431Z,0.30
2022-08-02T09:05:49.216Z,0.82
2022-08-02T09:08:50.961Z,0.40
2022-08-02T09:11:53.081Z,0.20
2022-08-02T09:14:55.921Z,0.40
2022-08-02T09:17:57.461Z,0.73
2022-08-02T09:21:00.515Z,0.60
2022-08-02T09:24:16.119Z,0.40
2022-08-02T09:27:20.130Z,0.32
2022-08-02T09:30:21.860Z,0.43
2022-08-02T09:33:26.568Z,1.65
2022-08-02T09:36:38.408Z,0.77
2022-08-02T09:39:46.601Z,0.45
2022-08-02T09:42:58.940Z,1.27
2022-08-02T09:46:09.797Z,1.27
2022-08-02T09:49:13.032Z,3.03
2022-08-02T09:52:15.107Z,0.20
2022-08-02T09:55:16.784Z,0.30
2022-08-02T09:58:22.736Z,0.20
2022-08-02T10:01:37.661Z,0.95
2022-08-02T10:04:52.624Z,0.93
2022-08-02T10:07:54.985Z,1.05
2022-08-02T10:11:00.918Z,0.40
2022-08-02T10:14:05.154Z,0.40
2022-08-02T10:17:07.070Z,0.32
2022-08-02T10:20:09.348Z,1.35
2022-08-02T10:23:13.573Z,0.30
2022-08-02T10:26:17.874Z,0.15
2022-08-02T10:29:23.852Z,1.75
2022-08-02T10:32:29.559Z,0.50
2022-08-02T10:35:35.228Z,0.30
2022-08-02T10:38:37.202Z,0.22
2022-08-02T10:41:41.953Z,0.20
2022-08-02T10:44:44.131Z,0.40
2022-08-02T10:48:02.692Z,0.40
2022-08-02T10:51:04.240Z,0.77
2022-08-02T10:54:09.029Z,0.60
2022-08-02T10:57:17.589Z,0.30
2022-08-02T11:00:30.118Z,0.52
2022-08-02T11:03:41.127Z,0.32
2022-08-02T11:07:00.939Z,0.30
2022-08-02T11:10:26.383Z,0.30
2022-08-02T11:13:29.366Z,0.30
2022-08-02T11:17:01.886Z,0.30
2022-08-02T11:20:17.317Z,0.85
2022-08-02T11:23:44.326Z,1.00
2022-08-02T11:26:47.009Z,0.63
2022-08-02T11:29:49.037Z,1.05
2022-08-02T11:32:54.525Z,0.45
2022-08-02T11:36:01.035Z,0.40
2022-08-02T11:39:10.934Z,0.40
2022-08-02T11:42:12.828Z,0.50
2022-08-02T11:45:21.107Z,0.50
2022-08-02T11:48:32.840Z,0.43
2022-08-02T11:51:35.084Z,0.30
2022-08-02T11:54:39.423Z,0.63
2022-08-02T11:58:04.571Z,0.52
2022-08-02T12:04:06.272Z,0.50
2022-08-02T12:07:09.275Z,1.17
2022-08-02T12:10:16.841Z,0.60
2022-08-02T12:13:20.979Z,0.35
2022-08-02T12:16:33.765Z,0.35
2022-08-02T12:19:36.490Z,0.40
2022-08-02T12:22:41.938Z,0.30
2022-08-02T12:25:43.730Z,0.60
2022-08-02T12:28:45.300Z,0.30
2022-08-02T12:31:56.257Z,1.42
2022-08-02T12:35:02.270Z,1.15
2022-08-02T12:38:10.390Z,0.40
2022-08-02T12:41:30.325Z,0.35
2022-08-02T12:44:38.374Z,0.40
2022-08-02T12:47:45.417Z,0.50
2022-08-02T12:50:46.931Z,0.32
2022-08-02T12:53:59.798Z,0.20
2022-08-02T12:57:11.162Z,0.60
2022-08-02T13:00:23.306Z,0.30
2022-08-02T13:04:10.419Z,0.40
2022-08-02T13:06:47.028Z,0.20
2022-08-02T13:09:49.436Z,0.75
2022-08-02T13:12:51.889Z,0.63
2022-08-02T13:15:56.635Z,0.20
2022-08-02T13:19:00.355Z,0.20
2022-08-02T13:22:03.626Z,0.82
2022-08-02T13:25:07.104Z,0.20
2022-08-02T13:28:08.723Z,1.33
2022-08-02T13:31:35.334Z,0.43
2022-08-02T13:34:31.733Z,0.45
2022-08-02T13:37:33.894Z,0.60
2022-08-02T13:41:04.231Z,0.20
2022-08-02T13:44:10.315Z,0.38
2022-08-02T13:47:12.777Z,0.20
2022-08-02T13:50:14.478Z,0.22
2022-08-02T13:53:16.093Z,0.22
2022-08-02T13:56:18.271Z,0.22
2022-08-02T13:59:54.052Z,0.60
2022-08-02T14:02:41.301Z,0.20
2022-08-02T14:05:48.265Z,1.23
2022-08-02T14:08:50.783Z,0.20
2022-08-02T14:11:52.979Z,0.17
2022-08-02T14:14:54.490Z,1.13
2022-08-02T14:17:56.088Z,0.30
2022-08-02T14:20:58.872Z,0.40
2022-08-02T14:24:00.364Z,0.47
2022-08-02T14:27:02.484Z,0.20
2022-08-02T14:30:04.588Z,0.13
2022-08-02T14:33:06.159Z,0.28
2022-08-02T14:36:07.757Z,0.30
2022-08-02T14:39:09.953Z,0.30
2022-08-02T14:42:12.390Z,0.40
2022-08-02T14:45:15.287Z,0.30
2022-08-02T14:48:16.921Z,1.05
2022-08-02T14:51:18.446Z,0.15
2022-08-02T14:54:19.978Z,0.30
2022-08-02T14:57:22.050Z,0.50
2022-08-02T15:00:25.565Z,1.48
2022-08-02T15:03:30.459Z,0.43
2022-08-02T15:06:32.303Z,0.32
2022-08-02T15:09:34.005Z,0.30
2022-08-02T15:12:41.634Z,0.70
2022-08-02T15:15:46.373Z,0.25
2022-08-02T15:18:47.952Z,0.22
2022-08-02T15:21:54.409Z,0.28
2022-08-02T15:24:56.492Z,0.13
2022-08-02T15:27:58.884Z,0.35
2022-08-02T15:31:00.287Z,0.30
2022-08-02T15:34:02.423Z,0.40
2022-08-02T15:37:04.153Z,0.30
2022-08-02T15:40:06.875Z,0.30
2022-08-02T15:43:08.986Z,0.20
2022-08-02T15:46:10.560Z,0.22
2022-08-02T15:49:12.324Z,0.30
2022-08-02T15:52:14.729Z,0.30
2022-08-02T15:55:16.441Z,0.28
2022-08-02T15:58:22.527Z,1.30
2022-08-02T16:01:24.304Z,0.20
2022-08-02T16:04:25.900Z,0.50
2022-08-02T16:07:27.410Z,0.22
2022-08-02T16:10:29.068Z,0.30
2022-08-02T16:13:53.306Z,0.47
2022-08-02T16:16:56.258Z,0.52
2022-08-02T16:20:00.927Z,0.77
2022-08-02T16:23:04.512Z,0.20
2022-08-02T16:26:06.449Z,0.20
2022-08-02T16:29:09.128Z,0.20
2022-08-02T16:32:11.649Z,0.32
2022-08-02T16:35:13.368Z,0.20
2022-08-02T16:38:14.846Z,0.22
2022-08-02T16:41:16.615Z,0.20
2022-08-02T16:44:29.456Z,0.30
2022-08-02T16:47:43.566Z,0.20
2022-08-02T16:50:47.362Z,0.65
2022-08-02T16:54:00.067Z,0.20
2022-08-02T16:57:04.165Z,0.38
2022-08-02T17:00:09.233Z,0.20
2022-08-02T17:03:13.165Z,0.20
2022-08-02T17:06:16.136Z,0.30
2022-08-02T17:10:02.151Z,0.20
2022-08-02T17:12:39.787Z,0.22
2022-08-02T17:16:15.877Z,0.32
2022-08-02T17:19:03.907Z,0.75
2022-08-02T17:22:05.561Z,0.20
2022-08-02T17:25:11.302Z,0.20
2022-08-02T17:28:12.920Z,0.43
2022-08-02T17:31:15.159Z,0.20
2022-08-02T17:34:17.100Z,0.20
2022-08-02T17:37:21.241Z,0.20
2022-08-02T17:40:23.879Z,0.20
2022-08-02T17:43:29.789Z,0.30
2022-08-02T17:46:32.028Z,0.20
2022-08-02T17:49:33.646Z,0.20
2022-08-02T17:52:51.197Z,0.20
2022-08-02T17:55:57.941Z,0.52
2022-08-02T17:59:09.836Z,0.15
2022-08-02T18:02:14.713Z,0.20
2022-08-02T18:05:16.357Z,0.15
2022-08-02T18:08:18.458Z,0.20
2022-08-02T18:11:52.539Z,1.35
2022-08-02T18:14:49.184Z,0.30
2022-08-02T18:17:51.558Z,0.10
2022-08-02T18:20:56.535Z,0.20
2022-08-02T18:23:59.205Z,0.15
2022-08-02T18:27:02.014Z,0.10
2022-08-02T18:30:05.006Z,0.80
2022-08-02T18:33:56.861Z,0.20
2022-08-02T18:36:29.544Z,0.20
2022-08-02T18:39:33.071Z,0.20
2022-08-02T18:42:34.664Z,0.35
2022-08-02T18:46:06.107Z,0.10
2022-08-02T18:48:58.512Z,0.28
2022-08-02T18:52:15.407Z,0.20
2022-08-02T18:56:00.130Z,0.20
2022-08-02T18:58:42.137Z,0.20
2022-08-02T19:01:51.030Z,0.20
2022-08-02T19:04:53.611Z,0.60
2022-08-02T19:07:56.351Z,0.20
2022-08-02T19:11:02.798Z,0.20
2022-08-02T19:14:04.603Z,0.20
2022-08-02T19:17:15.914Z,0.30
2022-08-02T19:20:33.419Z,0.10
2022-08-02T19:23:36.352Z,0.60
2022-08-02T19:26:57.051Z,0.30
2022-08-02T19:29:58.539Z,0.10
2022-08-02T19:33:03.229Z,0.30
2022-08-02T19:36:11.953Z,0.20
2022-08-02T19:39:16.816Z,0.20
2022-08-02T19:42:19.267Z,0.20
2022-08-02T19:45:45.081Z,0.20
2022-08-02T19:48:46.158Z,0.22
2022-08-02T19:51:55.517Z,0.40
2022-08-02T19:55:01.897Z,0.30
2022-08-02T19:58:18.990Z,0.30
2022-08-02T20:01:36.920Z,0.30
2022-08-02T20:04:41.974Z,0.30
2022-08-02T20:07:56.219Z,0.20
2022-08-02T20:10:58.084Z,0.20
2022-08-02T20:13:59.565Z,0.20
2022-08-02T20:17:06.568Z,0.15
2022-08-02T20:20:11.922Z,0.28
2022-08-02T20:23:33.010Z,0.22
2022-08-02T20:26:35.866Z,0.20
2022-08-02T20:29:44.975Z,0.30
2022-08-02T20:32:52.734Z,0.20
2022-08-02T20:35:54.786Z,0.32
2022-08-02T20:38:57.517Z,0.20
2022-08-02T20:42:01.236Z,0.40
2022-08-02T20:45:08.631Z,0.10
2022-08-02T20:48:13.501Z,0.68
2022-08-02T20:51:16.836Z,0.13
2022-08-02T20:54:32.599Z,0.40
2022-08-02T20:58:00.086Z,0.25
2022-08-02T21:00:59.682Z,0.40
2022-08-02T21:04:01.799Z,0.30
2022-08-02T21:07:03.396Z,0.20
2022-08-02T21:10:07.002Z,0.40
2022-08-02T21:13:18.690Z,0.10
2022-08-02T21:16:21.434Z,0.20
2022-08-02T21:19:24.607Z,0.15
2022-08-02T21:22:31.327Z,0.10
2022-08-02T21:25:50.658Z,0.17
2022-08-02T21:28:56.008Z,0.20
2022-08-02T21:31:57.669Z,0.10
2022-08-02T21:34:59.136Z,0.20
2022-08-02T21:38:00.577Z,0.30
2022-08-02T21:41:05.180Z,0.70
2022-08-02T21:47:24.374Z,0.25
2022-08-02T21:50:25.929Z,0.20
2022-08-02T21:53:42.682Z,0.13
2022-08-02T21:56:45.164Z,0.25
2022-08-02T21:59:52.798Z,0.20
2022-08-02T22:02:57.003Z,0.40
2022-08-02T22:06:00.168Z,0.20
2022-08-02T22:09:01.662Z,0.20
2022-08-02T22:12:09.849Z,0.50
2022-08-02T22:15:14.488Z,0.57
2022-08-02T22:18:15.931Z,0.30
2022-08-02T22:21:32.487Z,0.30
2022-08-02T22:24:48.470Z,0.30
2022-08-02T22:28:15.850Z,0.43
2022-08-02T22:31:12.270Z,0.30
2022-08-02T22:34:36.886Z,0.43
2022-08-02T22:40:58.569Z,0.63
2022-08-02T22:44:00.849Z,0.38
2022-08-02T22:47:03.982Z,0.30
2022-08-02T22:50:11.951Z,0.40
2022-08-02T22:53:13.698Z,0.30
2022-08-02T22:56:26.489Z,0.82
2022-08-02T22:59:36.421Z,0.30
2022-08-02T23:02:44.748Z,0.57
2022-08-02T23:05:50.031Z,0.60
2022-08-02T23:08:51.457Z,1.45
2022-08-02T23:11:53.106Z,0.82
2022-08-02T23:14:55.280Z,0.45
2022-08-02T23:18:11.355Z,0.40
2022-08-02T23:21:12.845Z,0.47
2022-08-02T23:24:29.637Z,0.43
2022-08-02T23:27:32.014Z,0.60
2022-08-02T23:30:34.044Z,0.30
2022-08-02T23:33:35.654Z,0.38
2022-08-02T23:36:57.218Z,0.30
2022-08-02T23:39:58.731Z,0.38
2022-08-02T23:43:00.240Z,0.50
2022-08-02T23:46:14.683Z,0.50
2022-08-02T23:49:17.098Z,0.57
2022-08-02T23:52:19.448Z,0.20
2022-08-02T23:55:20.882Z,0.50
2022-08-02T23:58:22.582Z,0.10
